Urdzhar, Kazakhstan
Current Conditions -  °F | °C
As of 12:00 PM on Saturday 29 Nov 2014 (Local Time) from UASK Reporting Station
Scattered Clouds Scattered Clouds  
Wind Chill: -11°   Ceiling: Unl
Heat Index: -11°   Visibility: 6mi
Dew Point: -17°   Wind: 2mph
Humidity: 77%   Direction: NA
Pressure: 30.92"   Gusts: NA
Location:  47.1°N, 81.61°E
Report Text: UASK 290600Z VRB01MPS 9999 SCT230 M24/M27 Q1047 R12/820245NOSIG RMK QFE759/1012
Loading
Personal Weather Stations






























Interactive Weather Map New forecast layout! Learn more

10-Day Weather Forecast

Advertisements
Track Severe Weather on mobile